sensor_id;sensor_type;location;lat;lon;timestamp;temperature;humidity
15111;DHT22;7656;51.954;7.998;2023-08-12T00:03:01;22.00;99.90
15111;DHT22;7656;51.954;7.998;2023-08-12T00:07:22;22.00;99.90
15111;DHT22;7656;51.954;7.998;2023-08-12T00:11:43;21.90;99.90
15111;DHT22;7656;51.954;7.998;2023-08-12T00:16:04;21.90;99.90
15111;DHT22;7656;51.954;7.998;2023-08-12T00:20:25;21.80;99.90
15111;DHT22;7656;51.954;7.998;2023-08-12T00:24:46;21.70;99.90
15111;DHT22;7656;51.954;7.998;2023-08-12T00:29:07;21.80;99.90
15111;DHT22;7656;51.954;7.998;2023-08-12T00:33:29;22.00;99.90
15111;DHT22;7656;51.954;7.998;2023-08-12T00:37:50;22.10;99.90
15111;DHT22;7656;51.954;7.998;2023-08-12T00:42:12;22.10;99.90
15111;DHT22;7656;51.954;7.998;2023-08-12T00:46:34;22.00;99.90
15111;DHT22;7656;51.954;7.998;2023-08-12T00:50:56;21.80;99.90
15111;DHT22;7656;51.954;7.998;2023-08-12T00:55:17;21.70;99.90
15111;DHT22;7656;51.954;7.998;2023-08-12T00:59:39;21.70;99.90
15111;DHT22;7656;51.954;7.998;2023-08-12T01:04:03;21.70;99.90
15111;DHT22;7656;51.954;7.998;2023-08-12T01:08:30;21.70;99.90
15111;DHT22;7656;51.954;7.998;2023-08-12T01:13:16;21.70;99.90
15111;DHT22;7656;51.954;7.998;2023-08-12T01:17:44;21.70;99.90
15111;DHT22;7656;51.954;7.998;2023-08-12T01:22:09;21.80;99.90
15111;DHT22;7656;51.954;7.998;2023-08-12T01:26:32;21.70;99.90
15111;DHT22;7656;51.954;7.998;2023-08-12T01:31:04;21.60;99.90
15111;DHT22;7656;51.954;7.998;2023-08-12T01:35:43;21.60;99.90
15111;DHT22;7656;51.954;7.998;2023-08-12T01:40:10;21.70;99.90
15111;DHT22;7656;51.954;7.998;2023-08-12T01:44:32;21.80;99.90
15111;DHT22;7656;51.954;7.998;2023-08-12T01:48:53;21.80;99.90
15111;DHT22;7656;51.954;7.998;2023-08-12T01:53:14;21.80;99.90
15111;DHT22;7656;51.954;7.998;2023-08-12T01:57:36;21.80;99.90
15111;DHT22;7656;51.954;7.998;2023-08-12T02:01:59;21.80;99.90
15111;DHT22;7656;51.954;7.998;2023-08-12T02:06:20;21.70;99.90
15111;DHT22;7656;51.954;7.998;2023-08-12T02:10:41;21.70;99.90
15111;DHT22;7656;51.954;7.998;2023-08-12T02:15:03;21.60;99.90
15111;DHT22;7656;51.954;7.998;2023-08-12T02:19:24;21.40;99.90
15111;DHT22;7656;51.954;7.998;2023-08-12T02:23:45;21.50;99.90
15111;DHT22;7656;51.954;7.998;2023-08-12T02:28:06;21.60;99.90
15111;DHT22;7656;51.954;7.998;2023-08-12T02:32:27;21.80;99.90
15111;DHT22;7656;51.954;7.998;2023-08-12T02:36:48;21.70;99.90
15111;DHT22;7656;51.954;7.998;2023-08-12T02:41:09;21.70;99.90
15111;DHT22;7656;51.954;7.998;2023-08-12T02:45:30;21.70;99.90
15111;DHT22;7656;51.954;7.998;2023-08-12T02:49:52;21.50;99.90
15111;DHT22;7656;51.954;7.998;2023-08-12T02:54:13;21.40;99.90
15111;DHT22;7656;51.954;7.998;2023-08-12T02:58:35;21.60;99.90
15111;DHT22;7656;51.954;7.998;2023-08-12T03:02:56;21.20;99.90
15111;DHT22;7656;51.954;7.998;2023-08-12T03:07:17;20.90;99.90
15111;DHT22;7656;51.954;7.998;2023-08-12T03:11:38;20.70;99.90
15111;DHT22;7656;51.954;7.998;2023-08-12T03:16:02;20.60;99.90
15111;DHT22;7656;51.954;7.998;2023-08-12T03:20:25;20.50;99.90
15111;DHT22;7656;51.954;7.998;2023-08-12T03:24:48;20.40;99.90
15111;DHT22;7656;51.954;7.998;2023-08-12T03:29:09;20.50;99.90
15111;DHT22;7656;51.954;7.998;2023-08-12T03:33:34;20.70;99.90
15111;DHT22;7656;51.954;7.998;2023-08-12T03:37:56;20.70;99.90
15111;DHT22;7656;51.954;7.998;2023-08-12T03:42:18;20.40;99.90
15111;DHT22;7656;51.954;7.998;2023-08-12T03:46:39;20.20;99.90
15111;DHT22;7656;51.954;7.998;2023-08-12T03:51:01;20.30;99.90
15111;DHT22;7656;51.954;7.998;2023-08-12T03:55:22;20.30;99.90
15111;DHT22;7656;51.954;7.998;2023-08-12T03:59:43;20.30;99.90
15111;DHT22;7656;51.954;7.998;2023-08-12T04:04:05;20.30;99.90
15111;DHT22;7656;51.954;7.998;2023-08-12T04:08:26;20.20;99.90
15111;DHT22;7656;51.954;7.998;2023-08-12T04:12:48;20.20;99.90
15111;DHT22;7656;51.954;7.998;2023-08-12T04:17:09;20.00;99.90
15111;DHT22;7656;51.954;7.998;2023-08-12T04:21:30;20.00;99.90
15111;DHT22;7656;51.954;7.998;2023-08-12T04:25:52;19.90;99.90
15111;DHT22;7656;51.954;7.998;2023-08-12T04:30:17;20.10;99.90
15111;DHT22;7656;51.954;7.998;2023-08-12T04:34:39;20.30;99.90
15111;DHT22;7656;51.954;7.998;2023-08-12T04:39:00;20.40;99.90
15111;DHT22;7656;51.954;7.998;2023-08-12T04:43:22;20.50;99.90
15111;DHT22;7656;51.954;7.998;2023-08-12T04:47:44;20.70;99.90
15111;DHT22;7656;51.954;7.998;2023-08-12T04:52:08;20.80;99.90
15111;DHT22;7656;51.954;7.998;2023-08-12T04:56:30;20.60;99.90
15111;DHT22;7656;51.954;7.998;2023-08-12T05:00:51;20.60;99.90
15111;DHT22;7656;51.954;7.998;2023-08-12T05:05:14;20.60;99.90
15111;DHT22;7656;51.954;7.998;2023-08-12T05:09:36;20.60;99.90
15111;DHT22;7656;51.954;7.998;2023-08-12T05:13:57;20.80;99.90
15111;DHT22;7656;51.954;7.998;2023-08-12T05:18:18;20.50;99.90
15111;DHT22;7656;51.954;7.998;2023-08-12T05:22:39;20.60;99.90
15111;DHT22;7656;51.954;7.998;2023-08-12T05:27:00;20.70;99.90
15111;DHT22;7656;51.954;7.998;2023-08-12T05:31:21;21.10;99.90
15111;DHT22;7656;51.954;7.998;2023-08-12T05:35:42;21.70;99.90
15111;DHT22;7656;51.954;7.998;2023-08-12T05:40:04;22.10;99.90
15111;DHT22;7656;51.954;7.998;2023-08-12T05:44:28;22.10;99.90
15111;DHT22;7656;51.954;7.998;2023-08-12T05:48:50;21.90;99.90
15111;DHT22;7656;51.954;7.998;2023-08-12T05:53:11;21.80;99.90
15111;DHT22;7656;51.954;7.998;2023-08-12T05:57:32;21.60;99.90
15111;DHT22;7656;51.954;7.998;2023-08-12T06:01:54;21.20;99.90
15111;DHT22;7656;51.954;7.998;2023-08-12T06:06:15;20.90;99.90
15111;DHT22;7656;51.954;7.998;2023-08-12T06:10:36;20.80;99.90
15111;DHT22;7656;51.954;7.998;2023-08-12T06:14:57;21.00;99.90
15111;DHT22;7656;51.954;7.998;2023-08-12T06:19:18;21.30;99.90
15111;DHT22;7656;51.954;7.998;2023-08-12T06:23:39;21.90;99.90
15111;DHT22;7656;51.954;7.998;2023-08-12T06:28:00;22.40;99.90
15111;DHT22;7656;51.954;7.998;2023-08-12T06:32:22;22.70;99.90
15111;DHT22;7656;51.954;7.998;2023-08-12T06:36:43;22.40;99.90
15111;DHT22;7656;51.954;7.998;2023-08-12T06:41:04;22.80;99.90
15111;DHT22;7656;51.954;7.998;2023-08-12T06:45:25;23.00;99.90
15111;DHT22;7656;51.954;7.998;2023-08-12T06:49:47;23.00;99.90
15111;DHT22;7656;51.954;7.998;2023-08-12T06:54:08;23.20;99.90
15111;DHT22;7656;51.954;7.998;2023-08-12T06:58:29;22.70;99.90
15111;DHT22;7656;51.954;7.998;2023-08-12T07:02:50;22.70;99.90
15111;DHT22;7656;51.954;7.998;2023-08-12T07:07:11;22.80;99.90
15111;DHT22;7656;51.954;7.998;2023-08-12T07:11:32;22.90;99.90
15111;DHT22;7656;51.954;7.998;2023-08-12T07:15:53;23.00;99.90
15111;DHT22;7656;51.954;7.998;2023-08-12T07:20:14;23.10;99.90
15111;DHT22;7656;51.954;7.998;2023-08-12T07:24:36;22.90;99.90
15111;DHT22;7656;51.954;7.998;2023-08-12T07:28:57;22.90;99.90
15111;DHT22;7656;51.954;7.998;2023-08-12T07:33:19;23.00;99.90
15111;DHT22;7656;51.954;7.998;2023-08-12T07:37:40;23.20;99.90
15111;DHT22;7656;51.954;7.998;2023-08-12T07:42:01;23.20;99.90
15111;DHT22;7656;51.954;7.998;2023-08-12T07:46:23;22.80;99.90
15111;DHT22;7656;51.954;7.998;2023-08-12T07:50:44;22.10;99.90
15111;DHT22;7656;51.954;7.998;2023-08-12T07:55:05;22.00;99.90
15111;DHT22;7656;51.954;7.998;2023-08-12T07:59:27;22.00;99.90
15111;DHT22;7656;51.954;7.998;2023-08-12T08:03:48;21.90;99.90
15111;DHT22;7656;51.954;7.998;2023-08-12T08:08:09;21.90;99.90
15111;DHT22;7656;51.954;7.998;2023-08-12T08:12:30;22.10;99.90
15111;DHT22;7656;51.954;7.998;2023-08-12T08:16:51;22.20;99.90
15111;DHT22;7656;51.954;7.998;2023-08-12T08:21:13;22.10;99.90
15111;DHT22;7656;51.954;7.998;2023-08-12T08:25:34;22.20;99.90
15111;DHT22;7656;51.954;7.998;2023-08-12T08:29:55;22.10;99.90
15111;DHT22;7656;51.954;7.998;2023-08-12T08:34:16;22.30;99.90
15111;DHT22;7656;51.954;7.998;2023-08-12T08:38:37;22.40;99.90
15111;DHT22;7656;51.954;7.998;2023-08-12T08:43:02;22.50;99.90
15111;DHT22;7656;51.954;7.998;2023-08-12T08:47:27;22.80;99.90
15111;DHT22;7656;51.954;7.998;2023-08-12T08:51:49;23.20;99.90
15111;DHT22;7656;51.954;7.998;2023-08-12T08:56:11;23.90;99.90
15111;DHT22;7656;51.954;7.998;2023-08-12T09:00:33;23.70;99.90
15111;DHT22;7656;51.954;7.998;2023-08-12T09:04:54;23.70;99.90
15111;DHT22;7656;51.954;7.998;2023-08-12T09:09:18;23.80;99.90
15111;DHT22;7656;51.954;7.998;2023-08-12T09:13:40;23.90;99.90
15111;DHT22;7656;51.954;7.998;2023-08-12T09:18:04;24.30;99.90
15111;DHT22;7656;51.954;7.998;2023-08-12T09:22:26;24.20;99.90
15111;DHT22;7656;51.954;7.998;2023-08-12T09:26:52;23.90;99.90
15111;DHT22;7656;51.954;7.998;2023-08-12T09:31:31;24.30;99.90
15111;DHT22;7656;51.954;7.998;2023-08-12T09:35:53;24.40;99.90
15111;DHT22;7656;51.954;7.998;2023-08-12T09:40:17;24.70;99.90
15111;DHT22;7656;51.954;7.998;2023-08-12T09:44:39;24.90;99.90
15111;DHT22;7656;51.954;7.998;2023-08-12T09:49:00;24.60;99.90
15111;DHT22;7656;51.954;7.998;2023-08-12T09:53:22;24.50;99.90
15111;DHT22;7656;51.954;7.998;2023-08-12T09:57:44;24.80;99.90
15111;DHT22;7656;51.954;7.998;2023-08-12T10:02:11;24.70;99.90
15111;DHT22;7656;51.954;7.998;2023-08-12T10:06:40;24.80;99.90
15111;DHT22;7656;51.954;7.998;2023-08-12T10:11:01;24.40;99.90
15111;DHT22;7656;51.954;7.998;2023-08-12T10:15:23;24.20;99.90
15111;DHT22;7656;51.954;7.998;2023-08-12T10:19:44;23.90;99.90
15111;DHT22;7656;51.954;7.998;2023-08-12T10:24:06;24.00;99.90
15111;DHT22;7656;51.954;7.998;2023-08-12T10:28:29;24.30;99.90
15111;DHT22;7656;51.954;7.998;2023-08-12T10:32:52;24.70;99.90
15111;DHT22;7656;51.954;7.998;2023-08-12T10:37:14;24.20;99.90
15111;DHT22;7656;51.954;7.998;2023-08-12T10:41:35;24.30;99.90
15111;DHT22;7656;51.954;7.998;2023-08-12T10:45:57;24.30;99.90
15111;DHT22;7656;51.954;7.998;2023-08-12T10:50:24;24.20;99.90
15111;DHT22;7656;51.954;7.998;2023-08-12T10:54:46;24.10;99.90
15111;DHT22;7656;51.954;7.998;2023-08-12T10:59:07;23.90;99.90
15111;DHT22;7656;51.954;7.998;2023-08-12T11:03:32;23.70;99.90
15111;DHT22;7656;51.954;7.998;2023-08-12T11:08:01;23.70;99.90
15111;DHT22;7656;51.954;7.998;2023-08-12T11:12:32;23.60;99.90
15111;DHT22;7656;51.954;7.998;2023-08-12T11:16:54;23.50;99.90
15111;DHT22;7656;51.954;7.998;2023-08-12T11:21:15;23.50;99.90
15111;DHT22;7656;51.954;7.998;2023-08-12T11:25:38;23.60;99.90
15111;DHT22;7656;51.954;7.998;2023-08-12T11:30:00;23.70;99.90
15111;DHT22;7656;51.954;7.998;2023-08-12T11:34:21;24.00;99.90
15111;DHT22;7656;51.954;7.998;2023-08-12T11:38:42;24.30;99.90
15111;DHT22;7656;51.954;7.998;2023-08-12T11:43:04;24.40;99.90
15111;DHT22;7656;51.954;7.998;2023-08-12T11:47:25;24.50;99.90
15111;DHT22;7656;51.954;7.998;2023-08-12T11:51:47;24.80;99.90
15111;DHT22;7656;51.954;7.998;2023-08-12T11:56:11;25.20;99.90
15111;DHT22;7656;51.954;7.998;2023-08-12T12:04:54;26.20;99.90
15111;DHT22;7656;51.954;7.998;2023-08-12T12:09:16;26.10;99.90
15111;DHT22;7656;51.954;7.998;2023-08-12T12:13:39;25.90;99.90
15111;DHT22;7656;51.954;7.998;2023-08-12T12:18:00;25.90;99.90
15111;DHT22;7656;51.954;7.998;2023-08-12T12:22:29;25.60;99.90
15111;DHT22;7656;51.954;7.998;2023-08-12T12:26:51;25.40;99.90
15111;DHT22;7656;51.954;7.998;2023-08-12T12:31:12;25.60;99.90
15111;DHT22;7656;51.954;7.998;2023-08-12T12:35:33;25.40;99.90
15111;DHT22;7656;51.954;7.998;2023-08-12T12:39:54;25.20;99.90
15111;DHT22;7656;51.954;7.998;2023-08-12T12:44:15;25.00;99.90
15111;DHT22;7656;51.954;7.998;2023-08-12T12:48:37;25.20;99.90
15111;DHT22;7656;51.954;7.998;2023-08-12T12:52:58;25.50;99.90
15111;DHT22;7656;51.954;7.998;2023-08-12T12:57:19;25.50;99.90
15111;DHT22;7656;51.954;7.998;2023-08-12T13:01:41;25.20;99.90
15111;DHT22;7656;51.954;7.998;2023-08-12T13:06:02;25.00;99.90
15111;DHT22;7656;51.954;7.998;2023-08-12T13:10:23;25.10;99.90
15111;DHT22;7656;51.954;7.998;2023-08-12T13:14:44;25.40;99.90
15111;DHT22;7656;51.954;7.998;2023-08-12T13:19:05;25.70;99.90
15111;DHT22;7656;51.954;7.998;2023-08-12T13:23:26;25.70;99.90
15111;DHT22;7656;51.954;7.998;2023-08-12T13:27:47;25.50;99.90
15111;DHT22;7656;51.954;7.998;2023-08-12T13:32:09;25.20;99.90
15111;DHT22;7656;51.954;7.998;2023-08-12T13:36:30;25.10;99.90
15111;DHT22;7656;51.954;7.998;2023-08-12T13:40:51;25.30;99.90
15111;DHT22;7656;51.954;7.998;2023-08-12T13:45:12;25.30;99.90
15111;DHT22;7656;51.954;7.998;2023-08-12T13:49:33;25.10;99.90
15111;DHT22;7656;51.954;7.998;2023-08-12T13:53:54;24.70;99.90
15111;DHT22;7656;51.954;7.998;2023-08-12T13:58:16;24.40;99.90
15111;DHT22;7656;51.954;7.998;2023-08-12T14:02:37;24.20;99.90
15111;DHT22;7656;51.954;7.998;2023-08-12T14:06:58;24.00;99.90
15111;DHT22;7656;51.954;7.998;2023-08-12T14:11:19;23.80;99.90
15111;DHT22;7656;51.954;7.998;2023-08-12T14:15:41;23.80;99.90
15111;DHT22;7656;51.954;7.998;2023-08-12T14:20:02;23.60;99.90
15111;DHT22;7656;51.954;7.998;2023-08-12T14:24:28;23.80;99.90
15111;DHT22;7656;51.954;7.998;2023-08-12T14:28:49;24.10;99.90
15111;DHT22;7656;51.954;7.998;2023-08-12T14:33:10;24.50;99.90
15111;DHT22;7656;51.954;7.998;2023-08-12T14:37:31;24.90;99.90
15111;DHT22;7656;51.954;7.998;2023-08-12T14:41:52;24.80;99.90
15111;DHT22;7656;51.954;7.998;2023-08-12T14:46:14;24.70;99.90
15111;DHT22;7656;51.954;7.998;2023-08-12T14:50:37;24.80;99.90
15111;DHT22;7656;51.954;7.998;2023-08-12T14:55:02;24.30;99.90
15111;DHT22;7656;51.954;7.998;2023-08-12T14:59:23;23.80;99.90
15111;DHT22;7656;51.954;7.998;2023-08-12T15:03:44;23.70;99.90
15111;DHT22;7656;51.954;7.998;2023-08-12T15:08:05;23.60;99.90
15111;DHT22;7656;51.954;7.998;2023-08-12T15:12:27;23.60;99.90
15111;DHT22;7656;51.954;7.998;2023-08-12T15:16:48;23.50;99.90
15111;DHT22;7656;51.954;7.998;2023-08-12T15:21:09;23.30;99.90
15111;DHT22;7656;51.954;7.998;2023-08-12T15:25:30;23.10;99.90
15111;DHT22;7656;51.954;7.998;2023-08-12T15:29:52;22.80;99.90
15111;DHT22;7656;51.954;7.998;2023-08-12T15:34:14;22.50;99.90
15111;DHT22;7656;51.954;7.998;2023-08-12T15:38:35;22.40;99.90
15111;DHT22;7656;51.954;7.998;2023-08-12T15:42:56;22.90;99.90
15111;DHT22;7656;51.954;7.998;2023-08-12T15:47:17;23.40;99.90
15111;DHT22;7656;51.954;7.998;2023-08-12T15:51:39;23.70;99.90
15111;DHT22;7656;51.954;7.998;2023-08-12T15:56:00;24.00;99.90
15111;DHT22;7656;51.954;7.998;2023-08-12T16:00:22;24.20;99.90
15111;DHT22;7656;51.954;7.998;2023-08-12T16:04:43;24.20;99.90
15111;DHT22;7656;51.954;7.998;2023-08-12T16:09:04;24.20;99.90
15111;DHT22;7656;51.954;7.998;2023-08-12T16:13:26;24.00;99.90
15111;DHT22;7656;51.954;7.998;2023-08-12T16:17:47;24.20;99.90
15111;DHT22;7656;51.954;7.998;2023-08-12T16:22:08;24.40;99.90
15111;DHT22;7656;51.954;7.998;2023-08-12T16:26:29;24.40;99.90
15111;DHT22;7656;51.954;7.998;2023-08-12T16:30:51;24.40;99.90
15111;DHT22;7656;51.954;7.998;2023-08-12T16:35:12;24.30;99.90
15111;DHT22;7656;51.954;7.998;2023-08-12T16:39:34;24.40;99.90
15111;DHT22;7656;51.954;7.998;2023-08-12T16:43:55;24.40;99.90
15111;DHT22;7656;51.954;7.998;2023-08-12T16:48:16;24.50;99.90
15111;DHT22;7656;51.954;7.998;2023-08-12T16:52:37;24.50;99.90
15111;DHT22;7656;51.954;7.998;2023-08-12T16:56:58;24.70;99.90
15111;DHT22;7656;51.954;7.998;2023-08-12T17:01:20;24.70;99.90
15111;DHT22;7656;51.954;7.998;2023-08-12T17:05:41;24.60;99.90
15111;DHT22;7656;51.954;7.998;2023-08-12T17:10:03;24.70;99.90
15111;DHT22;7656;51.954;7.998;2023-08-12T17:14:24;24.70;99.90
15111;DHT22;7656;51.954;7.998;2023-08-12T17:18:45;24.50;99.90
15111;DHT22;7656;51.954;7.998;2023-08-12T17:23:07;24.50;99.90
15111;DHT22;7656;51.954;7.998;2023-08-12T17:27:28;24.20;99.90
15111;DHT22;7656;51.954;7.998;2023-08-12T17:31:49;24.20;99.90
15111;DHT22;7656;51.954;7.998;2023-08-12T17:36:10;24.10;99.90
15111;DHT22;7656;51.954;7.998;2023-08-12T17:40:31;24.10;99.90
15111;DHT22;7656;51.954;7.998;2023-08-12T17:44:52;24.00;99.90
15111;DHT22;7656;51.954;7.998;2023-08-12T17:49:13;23.90;99.90
15111;DHT22;7656;51.954;7.998;2023-08-12T17:53:34;23.80;99.90
15111;DHT22;7656;51.954;7.998;2023-08-12T17:57:55;23.60;99.90
15111;DHT22;7656;51.954;7.998;2023-08-12T18:02:16;23.50;99.90
15111;DHT22;7656;51.954;7.998;2023-08-12T18:06:38;23.40;99.90
15111;DHT22;7656;51.954;7.998;2023-08-12T18:11:01;23.30;99.90
15111;DHT22;7656;51.954;7.998;2023-08-12T18:15:23;23.30;99.90
15111;DHT22;7656;51.954;7.998;2023-08-12T18:19:44;23.10;99.90
15111;DHT22;7656;51.954;7.998;2023-08-12T18:24:05;23.00;99.90
15111;DHT22;7656;51.954;7.998;2023-08-12T18:28:27;22.90;99.90
15111;DHT22;7656;51.954;7.998;2023-08-12T18:32:48;22.70;99.90
15111;DHT22;7656;51.954;7.998;2023-08-12T18:37:09;22.40;99.90
15111;DHT22;7656;51.954;7.998;2023-08-12T18:41:31;22.30;99.90
15111;DHT22;7656;51.954;7.998;2023-08-12T18:45:52;22.10;99.90
15111;DHT22;7656;51.954;7.998;2023-08-12T18:50:13;21.80;99.90
15111;DHT22;7656;51.954;7.998;2023-08-12T18:54:35;21.60;99.90
15111;DHT22;7656;51.954;7.998;2023-08-12T18:58:56;21.30;99.90
15111;DHT22;7656;51.954;7.998;2023-08-12T19:03:18;20.90;99.90
15111;DHT22;7656;51.954;7.998;2023-08-12T19:07:39;20.70;99.90
15111;DHT22;7656;51.954;7.998;2023-08-12T19:12:00;20.70;99.90
15111;DHT22;7656;51.954;7.998;2023-08-12T19:16:22;20.70;99.90
15111;DHT22;7656;51.954;7.998;2023-08-12T19:20:43;20.50;99.90
15111;DHT22;7656;51.954;7.998;2023-08-12T19:25:04;20.40;99.90
15111;DHT22;7656;51.954;7.998;2023-08-12T19:29:26;20.30;99.90
15111;DHT22;7656;51.954;7.998;2023-08-12T19:33:47;20.20;99.90
15111;DHT22;7656;51.954;7.998;2023-08-12T19:38:12;20.20;99.90
15111;DHT22;7656;51.954;7.998;2023-08-12T19:42:34;20.10;99.90
15111;DHT22;7656;51.954;7.998;2023-08-12T19:46:55;20.00;99.90
15111;DHT22;7656;51.954;7.998;2023-08-12T19:51:16;19.90;99.90
15111;DHT22;7656;51.954;7.998;2023-08-12T19:55:37;19.90;99.90
15111;DHT22;7656;51.954;7.998;2023-08-12T19:59:59;19.80;99.90
15111;DHT22;7656;51.954;7.998;2023-08-12T20:04:20;19.70;99.90
15111;DHT22;7656;51.954;7.998;2023-08-12T20:08:41;19.60;99.90
15111;DHT22;7656;51.954;7.998;2023-08-12T20:13:02;19.60;99.90
15111;DHT22;7656;51.954;7.998;2023-08-12T20:17:24;19.50;99.90
15111;DHT22;7656;51.954;7.998;2023-08-12T20:21:45;19.40;99.90
15111;DHT22;7656;51.954;7.998;2023-08-12T20:26:06;19.20;99.90
15111;DHT22;7656;51.954;7.998;2023-08-12T20:30:27;19.00;99.90
15111;DHT22;7656;51.954;7.998;2023-08-12T20:34:48;19.10;99.90
15111;DHT22;7656;51.954;7.998;2023-08-12T20:39:10;19.10;99.90
15111;DHT22;7656;51.954;7.998;2023-08-12T20:43:31;19.10;99.90
15111;DHT22;7656;51.954;7.998;2023-08-12T20:47:52;19.00;99.90
15111;DHT22;7656;51.954;7.998;2023-08-12T20:52:13;19.00;99.90
15111;DHT22;7656;51.954;7.998;2023-08-12T20:56:34;19.10;99.90
15111;DHT22;7656;51.954;7.998;2023-08-12T21:00:56;19.10;99.90
15111;DHT22;7656;51.954;7.998;2023-08-12T21:05:17;19.20;99.90
15111;DHT22;7656;51.954;7.998;2023-08-12T21:09:38;19.10;99.90
15111;DHT22;7656;51.954;7.998;2023-08-12T21:13:59;19.20;99.90
15111;DHT22;7656;51.954;7.998;2023-08-12T21:18:20;19.10;99.90
15111;DHT22;7656;51.954;7.998;2023-08-12T21:22:43;19.00;99.90
15111;DHT22;7656;51.954;7.998;2023-08-12T21:27:05;19.20;99.90
15111;DHT22;7656;51.954;7.998;2023-08-12T21:31:26;19.20;99.90
15111;DHT22;7656;51.954;7.998;2023-08-12T21:35:47;19.20;99.90
15111;DHT22;7656;51.954;7.998;2023-08-12T21:40:09;19.30;99.90
15111;DHT22;7656;51.954;7.998;2023-08-12T21:44:31;19.40;99.90
15111;DHT22;7656;51.954;7.998;2023-08-12T21:48:52;19.50;99.90
15111;DHT22;7656;51.954;7.998;2023-08-12T21:53:13;19.50;99.90
15111;DHT22;7656;51.954;7.998;2023-08-12T21:57:34;19.60;99.90
15111;DHT22;7656;51.954;7.998;2023-08-12T22:01:55;19.50;99.90
15111;DHT22;7656;51.954;7.998;2023-08-12T22:06:17;19.30;99.90
15111;DHT22;7656;51.954;7.998;2023-08-12T22:10:38;19.20;99.90
15111;DHT22;7656;51.954;7.998;2023-08-12T22:14:59;19.00;99.90
15111;DHT22;7656;51.954;7.998;2023-08-12T22:19:20;18.80;99.90
15111;DHT22;7656;51.954;7.998;2023-08-12T22:23:42;18.80;99.90
15111;DHT22;7656;51.954;7.998;2023-08-12T22:28:03;18.70;99.90
15111;DHT22;7656;51.954;7.998;2023-08-12T22:32:24;18.60;99.90
15111;DHT22;7656;51.954;7.998;2023-08-12T22:36:45;18.60;99.90
15111;DHT22;7656;51.954;7.998;2023-08-12T22:41:07;18.40;99.90
15111;DHT22;7656;51.954;7.998;2023-08-12T22:45:28;18.30;99.90
15111;DHT22;7656;51.954;7.998;2023-08-12T22:49:49;18.40;99.90
15111;DHT22;7656;51.954;7.998;2023-08-12T22:54:10;18.50;99.90
15111;DHT22;7656;51.954;7.998;2023-08-12T22:58:31;18.40;99.90
15111;DHT22;7656;51.954;7.998;2023-08-12T23:02:52;18.50;99.90
15111;DHT22;7656;51.954;7.998;2023-08-12T23:07:13;18.50;99.90
15111;DHT22;7656;51.954;7.998;2023-08-12T23:11:34;18.20;99.90
15111;DHT22;7656;51.954;7.998;2023-08-12T23:15:56;18.00;99.90
15111;DHT22;7656;51.954;7.998;2023-08-12T23:20:17;17.80;99.90
15111;DHT22;7656;51.954;7.998;2023-08-12T23:24:38;17.80;99.90
15111;DHT22;7656;51.954;7.998;2023-08-12T23:28:59;17.90;99.90
15111;DHT22;7656;51.954;7.998;2023-08-12T23:33:20;17.90;99.90
15111;DHT22;7656;51.954;7.998;2023-08-12T23:37:42;17.70;99.90
15111;DHT22;7656;51.954;7.998;2023-08-12T23:42:03;17.50;99.90
15111;DHT22;7656;51.954;7.998;2023-08-12T23:46:24;17.50;99.90
15111;DHT22;7656;51.954;7.998;2023-08-12T23:50:45;17.50;99.90
15111;DHT22;7656;51.954;7.998;2023-08-12T23:55:06;17.50;99.90
15111;DHT22;7656;51.954;7.998;2023-08-12T23:59:28;17.60;99.90
